Time;durP1;ratioP1;P1;durP2;ratioP2;P2;SDS_P1;SDS_P2;PMS_P1;PMS_P2;Temp;Humidity;BMP_temperature;BMP_pressure;BME280_temperature;BME280_humidity;BME280_pressure;Samples;Min_cycle;Max_cycle;Signal;HPM_P1;HPM_P2
2021/10/30 00:01:07;;;;;;;0.50;0.40;;;;;;;9.61;62.79;100638.77;111519;1193;94924;-76
2021/10/30 00:03:35;;;;;;;0.40;0.40;;;;;;;9.59;62.68;100641.63;111428;1195;96199;-76
2021/10/30 00:06:03;;;;;;;0.40;0.30;;;;;;;9.52;62.75;100642.83;111484;1193;137243;-76
2021/10/30 00:08:30;;;;;;;0.50;0.40;;;;;;;9.48;62.90;100644.84;111534;1194;109213;-77
2021/10/30 00:10:59;;;;;;;0.40;0.40;;;;;;;9.41;62.98;100645.68;111397;1193;139318;-77
2021/10/30 00:13:28;;;;;;;0.40;0.30;;;;;;;9.40;63.15;100643.75;111864;1193;96238;-77
2021/10/30 00:15:58;;;;;;;0.40;0.40;;;;;;;9.37;62.98;100641.67;111436;1193;139844;-77
2021/10/30 00:18:27;;;;;;;0.40;0.40;;;;;;;9.36;63.06;100643.12;111559;1195;109094;-77
2021/10/30 00:20:57;;;;;;;0.40;0.40;;;;;;;9.31;63.21;100645.50;111835;1192;95062;-77
2021/10/30 00:23:26;;;;;;;0.50;0.40;;;;;;;9.28;63.13;100646.08;111459;1193;139663;-77
2021/10/30 00:25:54;;;;;;;0.40;0.40;;;;;;;9.27;63.18;100644.68;111954;1192;108990;-77
2021/10/30 00:28:22;;;;;;;0.40;0.40;;;;;;;9.24;63.10;100646.87;111417;1192;138572;-77
2021/10/30 00:30:49;;;;;;;0.50;0.50;;;;;;;9.18;63.18;100651.23;111901;1192;96085;-77
2021/10/30 00:33:17;;;;;;;0.40;0.40;;;;;;;9.13;63.27;100650.59;111784;1192;94864;-77
2021/10/30 00:35:45;;;;;;;0.40;0.40;;;;;;;9.14;63.19;100650.91;111795;1192;138045;-76
2021/10/30 00:38:13;;;;;;;0.40;0.40;;;;;;;9.13;63.23;100641.55;111484;1193;107505;-77
2021/10/30 00:40:40;;;;;;;0.40;0.40;;;;;;;9.12;63.10;100644.75;111541;1193;138077;-77
2021/10/30 00:43:08;;;;;;;0.40;0.40;;;;;;;9.12;63.14;100641.20;111877;1192;94876;-77
2021/10/30 00:45:36;;;;;;;0.40;0.40;;;;;;;9.24;62.89;100644.39;111447;1195;107086;-77
2021/10/30 00:48:04;;;;;;;0.40;0.40;;;;;;;9.25;62.48;100645.06;111524;1192;137680;-76
2021/10/30 00:50:32;;;;;;;0.40;0.30;;;;;;;9.17;62.67;100644.84;111629;1192;94884;-75
2021/10/30 00:53:00;;;;;;;0.40;0.40;;;;;;;9.09;62.81;100646.75;111511;1192;137771;-76
2021/10/30 00:55:30;;;;;;;0.40;0.30;;;;;;;9.04;62.98;100647.36;111461;1195;108566;-77
2021/10/30 00:57:59;;;;;;;0.40;0.40;;;;;;;9.03;62.84;100644.71;111367;1193;138528;-76
2021/10/30 01:00:28;;;;;;;0.50;0.40;;;;;;;9.02;62.83;100642.77;111570;1192;95377;-77
2021/10/30 01:02:56;;;;;;;0.50;0.50;;;;;;;9.01;62.83;100642.63;111727;1192;94985;-76
2021/10/30 01:05:24;;;;;;;0.50;0.50;;;;;;;8.98;62.99;100644.63;111445;1193;137561;-77
2021/10/30 01:07:52;;;;;;;0.40;0.40;;;;;;;8.99;62.88;100645.67;111564;1193;108594;-77
2021/10/30 01:10:20;;;;;;;0.50;0.40;;;;;;;9.04;62.77;100645.75;111537;1192;139540;-77
2021/10/30 01:12:48;;;;;;;0.40;0.40;;;;;;;9.06;62.74;100646.98;111541;1193;95350;-77
2021/10/30 01:15:16;;;;;;;0.50;0.50;;;;;;;9.01;62.59;100650.77;111484;1193;107515;-77
2021/10/30 01:17:43;;;;;;;0.50;0.50;;;;;;;8.97;62.74;100649.06;111504;1193;138639;-76
2021/10/30 01:20:19;;;;;;;0.40;0.40;;;;;;;8.99;62.73;100650.82;111509;1193;94938;-76
2021/10/30 01:22:47;;;;;;;0.50;0.50;;;;;;;9.04;62.56;100652.33;111670;1193;137213;-76
2021/10/30 01:25:21;;;;;;;0.40;0.40;;;;;;;9.15;62.44;100653.73;111549;1193;109507;-77
2021/10/30 01:27:51;;;;;;;0.50;0.40;;;;;;;9.13;62.14;100658.02;111311;1193;138081;-77
2021/10/30 01:30:20;;;;;;;0.50;0.40;;;;;;;9.10;62.25;100649.56;111658;1193;95377;-77
2021/10/30 01:33:00;;;;;;;0.40;0.40;;;;;;;9.08;62.26;100651.90;111689;1192;94958;-76
2021/10/30 01:35:34;;;;;;;0.50;0.40;;;;;;;9.03;62.31;100653.58;111392;1193;138594;-77
2021/10/30 01:38:03;;;;;;;0.50;0.40;;;;;;;9.00;62.32;100648.84;111397;1195;108510;-77
2021/10/30 01:40:41;;;;;;;0.50;0.50;;;;;;;8.92;62.52;100646.14;111519;1193;138041;-77
2021/10/30 01:43:10;;;;;;;0.40;0.40;;;;;;;8.84;62.67;100642.17;111501;1193;95942;-77
2021/10/30 01:45:38;;;;;;;0.40;0.40;;;;;;;8.79;62.78;100639.60;111509;1193;108303;-77
2021/10/30 01:48:06;;;;;;;0.50;0.40;;;;;;;8.75;62.84;100635.23;111222;1194;137476;-77
2021/10/30 01:50:34;;;;;;;0.50;0.40;;;;;;;8.68;63.10;100637.80;111448;1192;95904;-77
2021/10/30 01:53:03;;;;;;;0.40;0.40;;;;;;;8.68;63.04;100634.63;111438;1193;138662;-77
2021/10/30 01:55:33;;;;;;;0.50;0.40;;;;;;;8.69;63.28;100635.15;111771;1193;107524;-77
2021/10/30 01:58:01;;;;;;;0.50;0.40;;;;;;;8.67;63.05;100633.58;111367;1193;138914;-77
2021/10/30 02:00:29;;;;;;;0.50;0.50;;;;;;;8.63;63.17;100634.34;111647;1192;95359;-78
2021/10/30 02:02:58;;;;;;;0.50;0.50;;;;;;;8.59;63.27;100633.69;111681;1192;95607;-77
2021/10/30 02:05:27;;;;;;;0.50;0.50;;;;;;;8.58;63.36;100632.13;111588;1192;138149;-77
2021/10/30 02:07:56;;;;;;;0.50;0.40;;;;;;;8.55;63.34;100633.20;111598;1192;106544;-78
2021/10/30 02:10:24;;;;;;;0.50;0.50;;;;;;;8.51;63.41;100627.98;111561;1192;138342;-77
2021/10/30 02:12:54;;;;;;;0.50;0.50;;;;;;;8.46;63.42;100625.03;111502;1195;95771;-77
2021/10/30 02:15:21;;;;;;;0.50;0.50;;;;;;;8.48;63.52;100628.72;111505;1192;107628;-77
2021/10/30 02:17:50;;;;;;;0.50;0.50;;;;;;;8.48;63.43;100629.95;111414;1192;137969;-77
2021/10/30 02:20:19;;;;;;;0.50;0.50;;;;;;;8.43;63.51;100627.17;111699;1192;94928;-76
2021/10/30 02:22:51;;;;;;;0.50;0.50;;;;;;;8.36;63.66;100628.13;111649;1192;137805;-77
2021/10/30 02:25:23;;;;;;;0.50;0.50;;;;;;;8.31;63.78;100626.98;111456;1192;108602;-77
2021/10/30 02:27:52;;;;;;;0.50;0.50;;;;;;;8.32;63.56;100625.71;111348;1193;138685;-77
2021/10/30 02:30:20;;;;;;;0.50;0.50;;;;;;;8.30;63.87;100624.67;111792;1192;95510;-77
2021/10/30 02:32:49;;;;;;;0.50;0.40;;;;;;;8.31;63.87;100629.45;111775;1193;95260;-77
2021/10/30 02:35:16;;;;;;;0.50;0.50;;;;;;;8.33;63.92;100630.66;111568;1200;138219;-77
2021/10/30 02:37:44;;;;;;;0.50;0.50;;;;;;;8.35;63.89;100630.27;111313;1192;109467;-77
2021/10/30 02:40:13;;;;;;;0.50;0.40;;;;;;;8.36;63.77;100632.55;111390;1197;139040;-77
2021/10/30 02:42:41;;;;;;;0.50;0.50;;;;;;;8.35;63.90;100637.00;111757;1192;95311;-77
2021/10/30 02:45:09;;;;;;;0.50;0.50;;;;;;;8.31;64.00;100640.06;111519;1193;106165;-77
2021/10/30 02:47:37;;;;;;;0.50;0.50;;;;;;;8.29;63.75;100635.48;111382;1193;138186;-76
2021/10/30 02:50:06;;;;;;;0.50;0.50;;;;;;;8.37;63.85;100636.98;111644;1192;95338;-77
2021/10/30 02:52:34;;;;;;;0.50;0.40;;;;;;;8.40;63.51;100636.93;111510;1192;137758;-75
2021/10/30 02:55:02;;;;;;;0.50;0.50;;;;;;;8.36;63.59;100635.92;111508;1192;107559;-77
2021/10/30 02:57:30;;;;;;;0.50;0.50;;;;;;;8.31;63.57;100636.52;111461;1193;108528;-77
2021/10/30 02:59:58;;;;;;;0.50;0.50;;;;;;;8.35;63.61;100636.13;111397;1193;139638;-77
2021/10/30 03:02:27;;;;;;;0.50;0.50;;;;;;;8.37;63.49;100636.61;111822;1192;96148;-77
2021/10/30 03:04:55;;;;;;;0.50;0.50;;;;;;;8.36;63.56;100640.36;111521;1192;137348;-77
2021/10/30 03:07:23;;;;;;;0.50;0.50;;;;;;;8.32;63.55;100639.87;111443;1195;107754;-77
2021/10/30 03:09:51;;;;;;;0.50;0.50;;;;;;;8.31;63.42;100638.83;111675;1192;138651;-77
2021/10/30 03:12:19;;;;;;;0.50;0.50;;;;;;;8.29;63.61;100639.02;111636;1192;94901;-76
2021/10/30 03:14:47;;;;;;;0.50;0.50;;;;;;;8.31;63.57;100641.83;111544;1193;107233;-77
2021/10/30 03:17:15;;;;;;;0.50;0.50;;;;;;;8.29;63.47;100643.45;111320;1194;138039;-77
2021/10/30 03:19:42;;;;;;;0.50;0.50;;;;;;;8.24;63.63;100648.64;111589;1194;94905;-76
2021/10/30 03:22:10;;;;;;;0.50;0.40;;;;;;;8.20;63.91;100646.40;111404;1193;139351;-77
2021/10/30 03:24:39;;;;;;;0.50;0.50;;;;;;;8.21;63.86;100644.98;111562;1193;108064;-77
2021/10/30 03:27:07;;;;;;;0.50;0.50;;;;;;;8.20;64.09;100644.08;111646;1193;108744;-77
2021/10/30 03:29:35;;;;;;;0.50;0.50;;;;;;;8.14;64.22;100643.81;111352;1193;139930;-77
2021/10/30 03:32:03;;;;;;;0.50;0.50;;;;;;;8.15;64.18;100644.52;111485;1193;95005;-77
2021/10/30 03:34:30;;;;;;;0.50;0.40;;;;;;;8.15;64.27;100646.63;111436;1193;138459;-77
2021/10/30 03:36:58;;;;;;;0.50;0.50;;;;;;;8.14;64.15;100649.66;111557;1193;109805;-76
2021/10/30 03:39:26;;;;;;;0.50;0.50;;;;;;;8.14;64.30;100650.36;111612;1193;95869;-76
2021/10/30 03:41:53;;;;;;;0.50;0.50;;;;;;;8.18;64.11;100651.36;111420;1193;138125;-75
2021/10/30 03:44:21;;;;;;;0.50;0.50;;;;;;;8.21;63.96;100649.22;111592;1193;107379;-77
2021/10/30 03:46:49;;;;;;;0.50;0.50;;;;;;;8.13;64.06;100648.42;111262;1195;138072;-77
2021/10/30 03:49:17;;;;;;;0.50;0.50;;;;;;;8.07;64.28;100652.04;111525;1194;95319;-77
2021/10/30 03:51:45;;;;;;;0.50;0.50;;;;;;;8.03;64.29;100651.19;111365;1193;137738;-78
2021/10/30 03:54:12;;;;;;;0.50;0.40;;;;;;;8.05;64.30;100652.94;111490;1194;108329;-76
2021/10/30 03:56:40;;;;;;;0.50;0.50;;;;;;;8.09;64.25;100656.07;111507;1194;107513;-77
2021/10/30 03:59:08;;;;;;;0.50;0.50;;;;;;;8.05;64.39;100650.45;111461;1193;137937;-77
2021/10/30 04:01:36;;;;;;;0.50;0.50;;;;;;;7.96;64.39;100645.27;111520;1194;95468;-76
2021/10/30 04:04:04;;;;;;;0.50;0.40;;;;;;;7.94;64.33;100643.35;111354;1193;138084;-77
2021/10/30 04:06:31;;;;;;;0.50;0.50;;;;;;;7.94;64.58;100644.92;111503;1193;108056;-77
2021/10/30 04:08:59;;;;;;;0.50;0.50;;;;;;;7.96;64.34;100648.63;111550;1192;94860;-77
2021/10/30 04:11:27;;;;;;;0.60;0.60;;;;;;;7.92;64.29;100646.38;111285;1196;137645;-76
2021/10/30 04:13:56;;;;;;;0.60;0.60;;;;;;;7.88;64.46;100650.65;111435;1194;107160;-76
2021/10/30 04:16:24;;;;;;;0.50;0.50;;;;;;;7.90;64.23;100648.87;111249;1193;139836;-78
2021/10/30 04:18:52;;;;;;;0.50;0.50;;;;;;;7.91;64.47;100650.81;111600;1199;94929;-77
2021/10/30 04:21:20;;;;;;;0.60;0.60;;;;;;;7.87;64.48;100646.60;111512;1194;94927;-77
2021/10/30 04:23:47;;;;;;;0.60;0.60;;;;;;;7.81;64.44;100644.38;111391;1193;137705;-77
2021/10/30 04:26:15;;;;;;;0.60;0.60;;;;;;;7.81;64.12;100644.02;111513;1193;108460;-77
2021/10/30 04:28:43;;;;;;;0.50;0.50;;;;;;;7.79;64.45;100644.21;111461;1194;137831;-77
2021/10/30 04:31:18;;;;;;;0.60;0.60;;;;;;;7.77;64.40;100640.89;111593;1193;94897;-76
2021/10/30 04:33:46;;;;;;;0.50;0.50;;;;;;;7.71;64.46;100645.01;111183;1195;138104;-77
2021/10/30 04:36:15;;;;;;;0.50;0.50;;;;;;;7.68;64.45;100646.99;111510;1195;108235;-76
2021/10/30 04:38:45;;;;;;;0.50;0.50;;;;;;;7.67;64.64;100649.46;111486;1193;95425;-76
2021/10/30 04:41:13;;;;;;;0.50;0.50;;;;;;;7.63;64.59;100649.86;111465;1192;137986;-76
2021/10/30 04:43:42;;;;;;;0.60;0.60;;;;;;;7.58;64.71;100649.92;111556;1193;107618;-78
2021/10/30 04:46:10;;;;;;;0.50;0.50;;;;;;;7.55;64.89;100645.35;111344;1193;138750;-77
2021/10/30 04:48:38;;;;;;;0.50;0.50;;;;;;;7.55;64.92;100641.81;111465;1194;96408;-77
2021/10/30 04:51:06;;;;;;;0.50;0.50;;;;;;;7.48;64.88;100643.29;111447;1193;96050;-77
2021/10/30 04:53:35;;;;;;;0.60;0.60;;;;;;;7.43;65.16;100640.70;111268;1195;137523;-77
2021/10/30 04:56:03;;;;;;;0.60;0.60;;;;;;;7.37;65.20;100640.23;111380;1195;108476;-76
2021/10/30 04:58:32;;;;;;;0.50;0.50;;;;;;;7.37;65.14;100637.41;111238;1195;138132;-76
2021/10/30 05:01:01;;;;;;;0.60;0.60;;;;;;;7.36;65.45;100638.12;111535;1193;95507;-77
2021/10/30 05:03:30;;;;;;;0.60;0.60;;;;;;;7.33;65.53;100631.77;111446;1193;107594;-76
2021/10/30 05:05:58;;;;;;;0.60;0.60;;;;;;;7.29;65.66;100634.11;111358;1193;137581;-76
2021/10/30 05:08:26;;;;;;;0.60;0.60;;;;;;;7.31;65.49;100631.44;111503;1193;95323;-77
2021/10/30 05:10:53;;;;;;;0.50;0.50;;;;;;;7.30;65.44;100630.02;111433;1193;137621;-77
2021/10/30 05:13:22;;;;;;;0.60;0.60;;;;;;;7.28;65.62;100631.66;111800;1193;107544;-77
2021/10/30 05:15:50;;;;;;;0.60;0.60;;;;;;;7.22;65.64;100623.05;111394;1194;137369;-77
2021/10/30 05:18:18;;;;;;;0.60;0.60;;;;;;;7.26;65.79;100631.33;111320;1194;95383;-77
2021/10/30 05:20:46;;;;;;;0.60;0.60;;;;;;;7.31;65.68;100631.09;111388;1194;94882;-78
2021/10/30 05:23:13;;;;;;;0.60;0.60;;;;;;;7.36;65.42;100630.52;111388;1193;137190;-78
2021/10/30 05:25:41;;;;;;;0.60;0.60;;;;;;;7.36;65.37;100633.70;111502;1193;108589;-76
2021/10/30 05:28:09;;;;;;;0.50;0.50;;;;;;;7.34;65.21;100637.60;111439;1193;138336;-76
2021/10/30 05:30:37;;;;;;;0.50;0.50;;;;;;;7.37;65.18;100637.58;111570;1193;95001;-75
2021/10/30 05:33:04;;;;;;;0.50;0.50;;;;;;;7.40;65.21;100638.42;111557;1193;107587;-78
2021/10/30 05:35:51;;;;;;;0.50;0.50;;;;;;;7.38;65.21;100629.96;111448;1193;137791;-77
2021/10/30 05:38:29;;;;;;;0.60;0.60;;;;;;;7.33;65.39;100630.71;111569;1194;96042;-77
2021/10/30 05:40:57;;;;;;;0.60;0.60;;;;;;;7.34;65.26;100632.48;111389;1195;138253;-77
2021/10/30 05:43:25;;;;;;;0.60;0.60;;;;;;;7.38;65.38;100634.74;111271;1196;107524;-77
2021/10/30 05:45:53;;;;;;;0.60;0.60;;;;;;;7.37;65.36;100634.74;111227;1194;138105;-76
2021/10/30 05:48:21;;;;;;;0.50;0.50;;;;;;;7.42;65.57;100638.76;111603;1193;94959;-76
2021/10/30 05:50:49;;;;;;;0.50;0.50;;;;;;;7.45;65.42;100633.78;111435;1194;95418;-77
2021/10/30 05:53:17;;;;;;;0.50;0.50;;;;;;;7.48;65.30;100637.29;111350;1194;136712;-77
2021/10/30 05:55:44;;;;;;;0.50;0.50;;;;;;;7.46;65.06;100637.13;111477;1193;108455;-77
2021/10/30 05:58:12;;;;;;;0.60;0.60;;;;;;;7.45;65.18;100636.08;111413;1193;137723;-76
2021/10/30 06:00:40;;;;;;;0.50;0.50;;;;;;;7.44;65.09;100632.56;111372;1195;94984;-77
2021/10/30 06:03:08;;;;;;;0.50;0.50;;;;;;;7.46;65.36;100635.71;111371;1194;108578;-76
2021/10/30 06:05:36;;;;;;;0.50;0.50;;;;;;;7.52;65.00;100633.18;111448;1193;137365;-77
2021/10/30 06:08:04;;;;;;;0.50;0.50;;;;;;;7.53;65.12;100635.82;111542;1194;95320;-77
2021/10/30 06:10:34;;;;;;;0.60;0.60;;;;;;;7.56;65.20;100633.50;111427;1194;137310;-77
2021/10/30 06:13:02;;;;;;;0.50;0.50;;;;;;;7.61;64.84;100638.92;111489;1192;108151;-77
2021/10/30 06:15:30;;;;;;;0.50;0.50;;;;;;;7.61;64.92;100637.16;111704;1192;109681;-75
2021/10/30 06:17:58;;;;;;;0.50;0.50;;;;;;;7.65;64.86;100638.54;111532;1193;137331;-76
2021/10/30 06:20:26;;;;;;;0.60;0.60;;;;;;;7.65;65.00;100643.83;111709;1193;95416;-78
2021/10/30 06:22:53;;;;;;;0.60;0.60;;;;;;;7.73;64.89;100638.62;111407;1193;137954;-76
2021/10/30 06:25:21;;;;;;;0.50;0.50;;;;;;;7.81;64.67;100636.77;111653;1192;108494;-77
2021/10/30 06:27:49;;;;;;;0.50;0.50;;;;;;;7.86;64.30;100638.66;111541;1192;138755;-77
2021/10/30 06:30:17;;;;;;;0.50;0.50;;;;;;;7.90;64.45;100640.92;111491;1194;94984;-77
2021/10/30 06:32:45;;;;;;;0.50;0.50;;;;;;;7.96;64.20;100645.96;111687;1192;107710;-76
2021/10/30 06:35:13;;;;;;;0.50;0.50;;;;;;;8.08;64.02;100646.20;111492;1193;138283;-76
2021/10/30 06:37:41;;;;;;;0.50;0.40;;;;;;;8.09;63.68;100645.46;111534;1192;95836;-76
2021/10/30 06:40:12;;;;;;;0.50;0.50;;;;;;;8.10;63.75;100649.52;111646;1192;137366;-76
2021/10/30 06:42:40;;;;;;;0.50;0.50;;;;;;;8.12;63.72;100652.67;111517;1192;109068;-77
2021/10/30 06:45:08;;;;;;;0.50;0.40;;;;;;;8.21;63.43;100655.22;111540;1194;108531;-76
2021/10/30 06:47:36;;;;;;;0.40;0.40;;;;;;;8.28;63.33;100652.30;111554;1192;137752;-77
2021/10/30 06:50:06;;;;;;;0.50;0.50;;;;;;;8.39;63.34;100654.46;111556;1194;96009;-76
2021/10/30 06:52:37;;;;;;;0.50;0.50;;;;;;;8.49;63.06;100654.88;111569;1192;137786;-76
2021/10/30 06:55:07;;;;;;;0.50;0.50;;;;;;;8.56;62.58;100657.64;111432;1196;109451;-77
2021/10/30 06:57:36;;;;;;;0.50;0.40;;;;;;;8.66;62.40;100657.14;111561;1193;95343;-74
2021/10/30 07:00:07;;;;;;;0.50;0.50;;;;;;;8.76;61.96;100659.64;111403;1193;137746;-77
2021/10/30 07:02:36;;;;;;;0.50;0.40;;;;;;;8.82;61.67;100659.55;111564;1193;107486;-77
2021/10/30 07:05:07;;;;;;;0.40;0.40;;;;;;;8.90;61.67;100657.86;111566;1192;137487;-77
2021/10/30 07:07:35;;;;;;;0.50;0.40;;;;;;;8.91;61.31;100657.30;111661;1193;94993;-77
2021/10/30 07:10:05;;;;;;;0.50;0.50;;;;;;;8.96;61.37;100656.34;111646;1192;138698;-77
2021/10/30 07:12:34;;;;;;;0.40;0.40;;;;;;;9.20;60.90;100661.44;111543;1194;108053;-76
2021/10/30 07:15:06;;;;;;;0.40;0.40;;;;;;;9.40;60.02;100660.95;111722;1196;109972;-76
2021/10/30 07:17:34;;;;;;;0.40;0.40;;;;;;;9.57;59.15;100659.77;111692;1193;137534;-76
2021/10/30 07:20:03;;;;;;;0.50;0.40;;;;;;;9.67;58.48;100660.11;111783;1192;95860;-76
2021/10/30 07:22:31;;;;;;;0.50;0.40;;;;;;;9.74;59.13;100659.80;111906;1192;137502;-76
2021/10/30 07:24:59;;;;;;;0.40;0.40;;;;;;;9.84;58.28;100653.24;111742;1193;108911;-76
2021/10/30 07:27:27;;;;;;;0.40;0.40;;;;;;;10.05;57.70;100652.29;111641;1193;94891;-76
2021/10/30 07:29:54;;;;;;;0.40;0.40;;;;;;;10.15;56.93;100646.05;111475;1194;137682;-77
2021/10/30 07:32:23;;;;;;;0.40;0.40;;;;;;;10.22;57.11;100647.52;111882;1191;109040;-77
2021/10/30 07:34:50;;;;;;;0.40;0.40;;;;;;;10.28;57.23;100647.55;111400;1192;138420;-77
2021/10/30 07:37:18;;;;;;;0.40;0.30;;;;;;;10.27;56.45;100647.05;111548;1195;94996;-77
2021/10/30 07:39:46;;;;;;;0.50;0.40;;;;;;;10.16;56.39;100646.92;111518;1193;137813;-77
2021/10/30 07:42:18;;;;;;;0.50;0.40;;;;;;;10.12;57.23;100650.54;111593;1195;108215;-77
2021/10/30 07:44:46;;;;;;;0.40;0.40;;;;;;;10.16;57.52;100655.96;111519;1196;108329;-76
2021/10/30 07:47:14;;;;;;;0.40;0.40;;;;;;;10.25;57.36;100657.91;111436;1195;138611;-76
2021/10/30 07:49:42;;;;;;;0.50;0.40;;;;;;;10.29;56.87;100654.81;111820;1196;96154;-77
2021/10/30 07:52:10;;;;;;;0.50;0.40;;;;;;;10.31;56.26;100654.77;111341;1193;137543;-77
2021/10/30 07:54:39;;;;;;;0.40;0.40;;;;;;;10.32;56.29;100653.16;111514;1193;108319;-76
2021/10/30 07:57:09;;;;;;;0.40;0.40;;;;;;;10.33;56.05;100648.86;111555;1194;96887;-77
2021/10/30 07:59:39;;;;;;;0.40;0.40;;;;;;;10.31;55.93;100651.39;111523;1193;137879;-77
2021/10/30 08:02:08;;;;;;;0.40;0.40;;;;;;;10.35;56.03;100655.60;111468;1195;107594;-77
2021/10/30 08:04:36;;;;;;;0.40;0.40;;;;;;;10.37;55.99;100654.67;111263;1195;137701;-77
2021/10/30 08:07:05;;;;;;;0.40;0.40;;;;;;;10.43;55.84;100653.14;112040;1193;96075;-78
2021/10/30 08:09:33;;;;;;;0.40;0.40;;;;;;;10.50;56.14;100652.09;111544;1194;94961;-78
2021/10/30 08:12:01;;;;;;;0.50;0.40;;;;;;;10.58;55.64;100654.05;111723;1193;138556;-77
2021/10/30 08:14:29;;;;;;;0.50;0.50;;;;;;;10.65;55.35;100654.08;111568;1194;107922;-78
2021/10/30 08:16:57;;;;;;;0.40;0.30;;;;;;;10.70;55.07;100653.23;111443;1196;138108;-77
2021/10/30 08:19:25;;;;;;;0.40;0.40;;;;;;;10.77;54.93;100652.55;111557;1193;94920;-77
2021/10/30 08:21:52;;;;;;;0.40;0.30;;;;;;;10.86;55.03;100648.79;111613;1195;137820;-77
2021/10/30 08:24:20;;;;;;;0.40;0.30;;;;;;;10.98;54.86;100645.65;111610;1193;108060;-77
2021/10/30 08:26:48;;;;;;;0.40;0.40;;;;;;;11.07;54.80;100647.92;111458;1192;95348;-76
2021/10/30 08:29:16;;;;;;;0.40;0.40;;;;;;;11.18;54.45;100647.48;111487;1193;137436;-77
2021/10/30 08:31:47;;;;;;;0.50;0.40;;;;;;;11.30;54.59;100641.69;111629;1192;108062;-76
2021/10/30 08:34:16;;;;;;;0.40;0.40;;;;;;;11.44;53.99;100642.40;111571;1195;140173;-77
2021/10/30 08:36:44;;;;;;;0.40;0.40;;;;;;;11.59;54.19;100642.55;111906;1193;94950;-78
2021/10/30 08:39:11;;;;;;;0.40;0.40;;;;;;;11.73;53.22;100638.80;111818;1193;95499;-77
2021/10/30 08:41:39;;;;;;;0.40;0.40;;;;;;;11.88;53.03;100638.39;111722;1192;137798;-77
2021/10/30 08:44:07;;;;;;;0.40;0.40;;;;;;;12.13;52.98;100641.08;111510;1193;106870;-76
2021/10/30 08:46:36;;;;;;;0.40;0.30;;;;;;;12.50;51.61;100641.61;111268;1195;137532;-76
2021/10/30 08:49:06;;;;;;;0.40;0.30;;;;;;;12.62;50.91;100641.77;111568;1192;95405;-75
2021/10/30 08:51:34;;;;;;;0.40;0.30;;;;;;;12.65;51.13;100642.91;111739;1192;107487;-77
2021/10/30 08:54:02;;;;;;;0.40;0.30;;;;;;;12.69;50.63;100642.44;111331;1196;138039;-76
2021/10/30 08:56:30;;;;;;;0.40;0.30;;;;;;;12.82;50.11;100635.45;111650;1192;95365;-76
2021/10/30 08:58:59;;;;;;;0.40;0.30;;;;;;;13.04;50.48;100631.33;111503;1192;137490;-76
2021/10/30 09:01:27;;;;;;;0.40;0.40;;;;;;;13.51;49.04;100628.55;111667;1194;107801;-77
2021/10/30 09:03:58;;;;;;;0.40;0.30;;;;;;;15.21;46.45;100620.40;111678;1193;138043;-76
2021/10/30 09:06:59;;;;;;;0.40;0.20;;;;;;;17.60;40.87;100613.79;111748;1193;96098;-76
2021/10/30 09:09:28;;;;;;;0.40;0.10;;;;;;;19.57;36.50;100606.27;111376;1195;95424;-77
2021/10/30 09:11:58;;;;;;;0.40;0.10;;;;;;;19.47;35.93;100607.59;111564;1192;137445;-76
2021/10/30 09:14:28;;;;;;;0.40;0.10;;;;;;;19.30;36.31;100606.84;111964;1192;108977;-77
2021/10/30 09:17:32;;;;;;;0.40;0.10;;;;;;;19.75;35.61;100604.48;111702;1192;137597;-76
2021/10/30 09:20:06;;;;;;;0.40;0.10;;;;;;;22.11;31.85;100596.99;111365;1197;95326;-77
2021/10/30 09:22:34;;;;;;;0.40;0.10;;;;;;;23.72;29.09;100597.04;112139;1192;137359;-75
2021/10/30 09:25:06;;;;;;;0.40;0.00;;;;;;;25.19;28.21;100595.72;111701;1192;108462;-76
2021/10/30 09:27:48;;;;;;;0.40;0.00;;;;;;;25.22;25.62;100597.69;111883;1192;95391;-75
2021/10/30 09:30:31;;;;;;;0.40;0.00;;;;;;;23.44;28.22;100596.14;111933;1192;137235;-75
2021/10/30 09:33:05;;;;;;;0.40;0.00;;;;;;;22.07;30.38;100600.98;111645;1193;108504;-76
2021/10/30 09:35:41;;;;;;;0.40;0.00;;;;;;;20.82;30.85;100605.28;111699;1193;138739;-75
2021/10/30 09:38:27;;;;;;;0.40;0.10;;;;;;;19.76;32.49;100600.79;111955;1192;94903;-76
2021/10/30 09:40:55;;;;;;;0.40;0.10;;;;;;;18.96;33.79;100603.59;111672;1199;139240;-76
2021/10/30 09:43:23;;;;;;;0.40;0.10;;;;;;;18.41;35.17;100599.09;111491;1192;108490;-75
2021/10/30 09:45:54;;;;;;;0.40;0.10;;;;;;;17.95;36.02;100597.31;111481;1193;137787;-76
2021/10/30 09:48:27;;;;;;;0.40;0.10;;;;;;;17.52;36.60;100603.48;111747;1192;94901;-76
2021/10/30 09:50:58;;;;;;;0.40;0.10;;;;;;;17.05;36.85;100601.91;111718;1195;94933;-76
2021/10/30 09:53:41;;;;;;;0.40;0.10;;;;;;;16.67;38.30;100596.40;111902;1192;138814;-75
2021/10/30 09:56:11;;;;;;;0.40;0.20;;;;;;;16.42;38.65;100592.23;111609;1192;108365;-77
2021/10/30 09:58:42;;;;;;;0.40;0.10;;;;;;;16.26;39.22;100587.77;111404;1193;137693;-79
2021/10/30 10:01:19;;;;;;;0.40;0.20;;;;;;;16.18;39.35;100581.16;111617;1193;94953;-77
2021/10/30 10:03:48;;;;;;;0.40;0.20;;;;;;;16.12;40.37;100581.98;111478;1194;107546;-78
2021/10/30 10:06:22;;;;;;;0.40;0.20;;;;;;;16.06;40.03;100579.75;111480;1194;137555;-78
2021/10/30 10:08:51;;;;;;;0.40;0.20;;;;;;;16.02;40.63;100582.44;111678;1192;95388;-77
2021/10/30 10:11:20;;;;;;;0.40;0.20;;;;;;;16.00;41.08;100581.09;111606;1192;137947;-77
2021/10/30 10:13:49;;;;;;;0.40;0.20;;;;;;;15.95;40.39;100577.40;111459;1196;108784;-77
2021/10/30 10:16:22;;;;;;;0.40;0.20;;;;;;;15.86;40.55;100571.90;111625;1194;138685;-75
2021/10/30 10:18:54;;;;;;;0.40;0.20;;;;;;;15.79;40.85;100574.49;111836;1192;94853;-76
2021/10/30 10:21:32;;;;;;;0.40;0.20;;;;;;;15.75;40.20;100571.48;112442;1192;96838;-76
2021/10/30 10:24:00;;;;;;;0.40;0.20;;;;;;;15.71;40.42;100570.17;111566;1193;137623;-77
2021/10/30 10:26:46;;;;;;;0.40;0.20;;;;;;;15.76;41.13;100567.48;112236;1193;109081;-77
2021/10/30 10:29:26;;;;;;;0.40;0.20;;;;;;;15.79;40.74;100567.51;111672;1193;137710;-77
2021/10/30 10:31:54;;;;;;;0.40;0.20;;;;;;;15.82;40.59;100565.06;111640;1193;95051;-76
2021/10/30 10:34:39;;;;;;;0.40;0.20;;;;;;;15.85;40.68;100568.50;111664;1192;139830;-77
2021/10/30 10:37:10;;;;;;;0.40;0.20;;;;;;;15.86;40.51;100564.55;111884;1193;108418;-76
2021/10/30 10:39:43;;;;;;;0.40;0.20;;;;;;;15.89;41.48;100561.73;111672;1193;95833;-77
2021/10/30 10:42:15;;;;;;;0.40;0.10;;;;;;;15.93;42.00;100558.13;111554;1193;137890;-76
2021/10/30 10:44:52;;;;;;;0.40;0.10;;;;;;;15.95;41.19;100555.73;112153;1192;107886;-75
2021/10/30 10:47:35;;;;;;;0.40;0.20;;;;;;;15.97;40.78;100549.92;111466;1194;139094;-77
2021/10/30 10:50:10;;;;;;;0.40;0.10;;;;;;;15.99;40.12;100550.50;111620;1195;95319;-76
2021/10/30 10:53:00;;;;;;;0.40;0.10;;;;;;;16.00;40.66;100544.20;111481;1193;139163;-77
2021/10/30 10:55:29;;;;;;;0.40;0.10;;;;;;;16.05;40.63;100544.14;111644;1192;106961;-76
2021/10/30 10:58:05;;;;;;;0.40;0.20;;;;;;;16.15;41.29;100539.39;111590;1192;137885;-77
2021/10/30 11:00:34;;;;;;;0.40;0.10;;;;;;;16.24;40.21;100533.77;111719;1193;95719;-77
2021/10/30 11:03:03;;;;;;;0.40;0.10;;;;;;;16.30;39.80;100527.73;111574;1193;94923;-77
2021/10/30 11:05:32;;;;;;;0.40;0.10;;;;;;;16.32;39.66;100528.00;111447;1194;137972;-77
2021/10/30 11:08:23;;;;;;;0.40;0.10;;;;;;;16.35;40.76;100533.59;111706;1193;109613;-76
2021/10/30 11:11:21;;;;;;;0.40;0.10;;;;;;;16.39;40.25;100533.95;111817;1193;138297;-75
2021/10/30 11:13:54;;;;;;;0.40;0.10;;;;;;;16.39;39.50;100531.61;111450;1193;95290;-77
2021/10/30 11:16:29;;;;;;;0.40;0.10;;;;;;;16.39;40.15;100529.27;111978;1192;138022;-77
2021/10/30 11:19:11;;;;;;;0.40;0.10;;;;;;;16.43;40.49;100525.89;111620;1193;108560;-78
2021/10/30 11:21:47;;;;;;;0.40;0.10;;;;;;;16.45;40.14;100532.04;111687;1193;96986;-77
2021/10/30 11:24:20;;;;;;;0.40;0.10;;;;;;;16.45;39.99;100525.05;111522;1193;138487;-76
2021/10/30 11:26:59;;;;;;;0.40;0.10;;;;;;;16.44;40.11;100524.22;112109;1193;109296;-76
2021/10/30 11:29:27;;;;;;;0.40;0.10;;;;;;;16.48;41.31;100517.71;111659;1192;139848;-76